Terminal Aerodrome Forecast
Issued by NWS Wilmington, OH

Home | Current Version | Previous Version | Text Only | Print | Product List | Glossary On
Versions: 1 2 3 4 5 6 7 8 9 10 11 12 13 14 15 16 17 18 19 20 21 22 23 24 25 26 27 28 29
000
FTUS41 KILN 272102 AAB
TAFCVG
TAF AMD
KCVG 272102Z 2721/2824 16007KT P6SM SCT015 OVC060
     FM280200 14005KT P6SM FEW040 BKN150
     FM281000 17007KT P6SM VCSH OVC020
     FM281500 18010G18KT 5SM -SHRA OVC012=

USA.gov is the U.S. government's official web portal to all federal, state and local government web resources and services.